Startpagina
METAR-TAF:

METAR-TAF

Vliegvelden :

Harbin, China

breedte: 45-45N, lengte: 126-46E, hoogte: 143 m

Actueel weer

Dit bericht is 27 minuten geleden gemaakt, om 18:00 UTC
Wind 4 kt uit het zuidwesten
Temperatuur -23°C
Vochtigheid 76%
Druk 1030 hPa
Zicht: 7000 m

METAR: ZYHB 231800Z 22002MPS 7000 NSC M23/M26 Q1030 NOSIG

Tijdstip: 02:27 (18:27 UTC)

Verwachting

Dit bericht is 3 uur en het 26 minuten geleden gemaakt, om 15:01 UTC
Verwachting geldig van 23 om 18 UTC tot 24 om 18 UTC
Wind 6 kt uit het westen
Zicht: 5000 m
Verspreide wolken op 3000 ft
Heiigheid
Tijdelijke
van 23 om 18 UTC tot 23 om 24 UTC
Zicht: 1400 m
Heiigheid

TAF: ZYHB 231501Z 2318/2418 27003MPS 5000 HZ SCT030 TXM08/06Z TNM21/22Z TEMPO 2318/2324 1400 HZ

Waarnemingen en weersverwachtingen van meer dan 4000 vliegvelden (METAR en TAF).

De beschikbare stations zijn de gele en rode punten op de kaart.

Ga met uw muis naar het station om de naam te zien.

Klik dan om waarnemingen en weersverwachtingen te zien.

kaart wijzigen: klik op de groene knoppen met een zwart kruis om in te zoomen, op de groene knop met een streepje om uit te zoomen of op de groene pijlen voor aangrenzende kaarten.


METAR-TAF: